createdAt,value
2022-08-12T00:01:12.809Z,90.50
2022-08-12T00:03:59.085Z,90.50
2022-08-12T00:06:47.547Z,90.70
2022-08-12T00:09:33.482Z,90.70
2022-08-12T00:12:19.690Z,90.70
2022-08-12T00:15:05.359Z,90.70
2022-08-12T00:17:52.635Z,91.00
2022-08-12T00:20:38.334Z,91.20
2022-08-12T00:23:26.749Z,91.50
2022-08-12T00:26:22.714Z,91.20
2022-08-12T00:29:13.722Z,91.40
2022-08-12T00:32:01.320Z,91.70
2022-08-12T00:34:49.603Z,91.90
2022-08-12T00:37:42.535Z,91.90
2022-08-12T00:40:32.735Z,92.00
2022-08-12T00:43:00.202Z,92.00
2022-08-12T00:45:47.977Z,92.30
2022-08-12T00:48:17.053Z,92.00
2022-08-12T00:50:47.731Z,92.30
2022-08-12T00:53:16.890Z,92.50
2022-08-12T00:55:47.477Z,92.50
2022-08-12T00:58:20.944Z,92.70
2022-08-12T01:00:51.366Z,93.00
2022-08-12T01:03:21.933Z,93.10
2022-08-12T01:06:08.480Z,93.00
2022-08-12T01:08:54.287Z,93.00
2022-08-12T01:11:31.491Z,93.50
2022-08-12T01:14:01.843Z,93.60
2022-08-12T01:16:29.390Z,93.80
2022-08-12T01:18:58.079Z,93.90
2022-08-12T01:21:28.137Z,94.10
2022-08-12T01:24:31.209Z,94.20
2022-08-12T01:27:03.460Z,94.40
2022-08-12T01:29:44.151Z,94.60
2022-08-12T01:32:17.367Z,94.90
2022-08-12T01:35:05.685Z,95.20
2022-08-12T01:37:57.441Z,95.40
2022-08-12T01:40:35.139Z,95.60
2022-08-12T01:43:10.551Z,95.80
2022-08-12T01:46:05.562Z,96.00
2022-08-12T01:48:47.633Z,96.20
2022-08-12T01:52:15.106Z,96.30
2022-08-12T01:54:18.668Z,96.70
2022-08-12T01:57:13.510Z,97.00
2022-08-12T01:59:59.165Z,97.10
2022-08-12T02:02:40.934Z,97.40
2022-08-12T02:05:57.031Z,97.70
2022-08-12T02:09:10.788Z,97.90
2022-08-12T02:12:09.132Z,98.10
2022-08-12T02:14:54.725Z,98.50
2022-08-12T02:17:55.254Z,98.70
2022-08-12T02:20:51.487Z,98.70
2022-08-12T02:23:24.370Z,98.90
2022-08-12T02:25:56.987Z,99.30
2022-08-12T02:28:24.427Z,99.60
2022-08-12T02:30:51.578Z,99.80
2022-08-12T02:33:20.207Z,99.90
2022-08-12T02:35:48.536Z,99.90
2022-08-12T02:38:17.507Z,99.90
2022-08-12T02:40:50.047Z,99.90
2022-08-12T02:43:59.316Z,99.90
2022-08-12T02:46:32.563Z,99.90
2022-08-12T02:49:15.888Z,99.90
2022-08-12T02:51:46.830Z,99.90
2022-08-12T02:54:13.969Z,99.90
2022-08-12T02:56:47.117Z,99.90
2022-08-12T02:59:22.870Z,99.90
2022-08-12T03:01:54.212Z,99.90
2022-08-12T03:04:47.818Z,99.90
2022-08-12T03:07:56.047Z,99.90
2022-08-12T03:10:36.799Z,99.90
2022-08-12T03:13:07.430Z,99.90
2022-08-12T03:15:35.948Z,99.90
2022-08-12T03:18:25.925Z,99.90
2022-08-12T03:20:56.070Z,99.90
2022-08-12T03:23:30.327Z,99.90
2022-08-12T03:26:01.807Z,99.90
2022-08-12T03:28:54.201Z,99.90
2022-08-12T03:31:35.290Z,99.90
2022-08-12T03:34:09.483Z,99.90
2022-08-12T03:36:39.527Z,99.90
2022-08-12T03:39:17.359Z,99.90
2022-08-12T03:42:07.806Z,99.90
2022-08-12T03:45:20.388Z,99.90
2022-08-12T03:48:32.706Z,99.90
2022-08-12T03:51:20.529Z,99.90
2022-08-12T03:54:08.921Z,99.90
2022-08-12T03:56:57.375Z,99.90
2022-08-12T03:59:42.757Z,99.90
2022-08-12T04:02:17.694Z,99.90
2022-08-12T04:04:47.400Z,99.90
2022-08-12T04:07:16.736Z,99.90
2022-08-12T04:09:46.654Z,99.90
2022-08-12T04:12:33.487Z,99.90
2022-08-12T04:15:01.957Z,99.90
2022-08-12T04:17:30.318Z,99.90
2022-08-12T04:19:58.996Z,99.90
2022-08-12T04:22:30.495Z,99.90
2022-08-12T04:25:01.234Z,99.90
2022-08-12T04:27:32.586Z,99.90
2022-08-12T04:30:29.374Z,99.90
2022-08-12T04:32:50.991Z,99.90
2022-08-12T04:35:19.361Z,99.90
2022-08-12T04:38:00.408Z,99.90
2022-08-12T04:40:34.084Z,99.90
2022-08-12T04:43:01.852Z,99.90
2022-08-12T04:45:31.217Z,99.90
2022-08-12T04:47:59.186Z,99.90
2022-08-12T04:50:34.755Z,99.90
2022-08-12T04:53:08.943Z,99.90
2022-08-12T04:55:38.878Z,99.90
2022-08-12T04:58:08.281Z,99.90
2022-08-12T05:00:37.891Z,99.90
2022-08-12T05:03:07.472Z,99.90
2022-08-12T05:05:37.888Z,99.90
2022-08-12T05:08:10.340Z,99.90
2022-08-12T05:10:37.411Z,99.90
2022-08-12T05:13:14.394Z,99.90
2022-08-12T05:16:05.097Z,99.90
2022-08-12T05:18:30.844Z,99.90
2022-08-12T05:21:01.039Z,99.90
2022-08-12T05:23:32.209Z,99.90
2022-08-12T05:26:01.097Z,99.90
2022-08-12T05:28:30.403Z,99.90
2022-08-12T05:30:58.795Z,99.90
2022-08-12T05:33:26.731Z,99.90
2022-08-12T05:35:53.907Z,99.90
2022-08-12T05:38:39.567Z,99.90
2022-08-12T05:41:19.219Z,99.90
2022-08-12T05:44:01.682Z,99.90
2022-08-12T05:46:30.699Z,99.90
2022-08-12T05:49:00.792Z,99.90
2022-08-12T05:51:40.591Z,99.90
2022-08-12T05:54:11.401Z,99.90
2022-08-12T05:56:40.794Z,99.90
2022-08-12T05:59:11.192Z,99.90
2022-08-12T06:02:10.505Z,99.90
2022-08-12T06:04:31.678Z,99.90
2022-08-12T06:06:58.964Z,99.90
2022-08-12T06:09:30.279Z,99.90
2022-08-12T06:12:05.881Z,99.90
2022-08-12T06:14:36.763Z,99.90
2022-08-12T06:17:06.157Z,99.90
2022-08-12T06:20:27.208Z,99.90
2022-08-12T06:22:20.424Z,99.90
2022-08-12T06:24:49.843Z,99.90
2022-08-12T06:27:18.884Z,99.90
2022-08-12T06:30:08.362Z,99.90
2022-08-12T06:32:34.582Z,99.90
2022-08-12T06:35:27.205Z,99.90
2022-08-12T06:37:56.993Z,99.90
2022-08-12T06:40:48.841Z,99.90
2022-08-12T06:43:15.973Z,99.90
2022-08-12T06:45:47.383Z,99.90
2022-08-12T06:48:15.370Z,99.90
2022-08-12T06:50:46.611Z,99.90
2022-08-12T06:53:13.780Z,99.90
2022-08-12T06:55:56.633Z,99.90
2022-08-12T06:58:26.809Z,99.90
2022-08-12T07:00:55.967Z,99.90
2022-08-12T07:03:30.543Z,99.90
2022-08-12T07:06:10.297Z,99.90
2022-08-12T07:08:38.730Z,99.90
2022-08-12T07:11:09.451Z,99.90
2022-08-12T07:14:11.658Z,99.90
2022-08-12T07:16:51.942Z,99.90
2022-08-12T07:19:20.701Z,99.90
2022-08-12T07:21:55.767Z,99.90
2022-08-12T07:24:30.535Z,99.90
2022-08-12T07:26:57.834Z,99.90
2022-08-12T07:30:00.086Z,99.90
2022-08-12T07:32:15.976Z,99.90
2022-08-12T07:34:43.358Z,99.90
2022-08-12T07:37:10.613Z,99.90
2022-08-12T07:39:50.599Z,99.90
2022-08-12T07:42:24.879Z,99.90
2022-08-12T07:44:53.695Z,99.90
2022-08-12T07:47:20.819Z,99.90
2022-08-12T07:50:05.633Z,99.90
2022-08-12T07:52:44.069Z,99.90
2022-08-12T07:55:13.804Z,99.90
2022-08-12T07:57:59.354Z,99.90
2022-08-12T08:00:30.063Z,99.90
2022-08-12T08:02:58.888Z,99.90
2022-08-12T08:05:34.582Z,99.90
2022-08-12T08:08:02.492Z,99.90
2022-08-12T08:10:33.419Z,99.90
2022-08-12T08:13:05.207Z,99.90
2022-08-12T08:16:02.044Z,99.90
2022-08-12T08:18:27.566Z,99.90
2022-08-12T08:20:56.592Z,99.90
2022-08-12T08:23:46.334Z,99.90
2022-08-12T08:26:20.604Z,99.90
2022-08-12T08:28:47.998Z,99.10
2022-08-12T08:31:15.109Z,98.90
2022-08-12T08:34:09.613Z,97.80
2022-08-12T08:36:29.527Z,97.60
2022-08-12T08:38:58.079Z,97.30
2022-08-12T08:42:17.882Z,97.10
2022-08-12T08:44:39.677Z,97.00
2022-08-12T08:47:12.400Z,96.80
2022-08-12T08:49:40.226Z,96.90
2022-08-12T08:52:10.400Z,96.00
2022-08-12T08:54:38.590Z,95.00
2022-08-12T08:57:08.565Z,94.10
2022-08-12T08:59:35.968Z,94.20
2022-08-12T09:02:03.675Z,93.60
2022-08-12T09:05:11.116Z,93.80
2022-08-12T09:10:09.302Z,93.20
2022-08-12T09:13:09.188Z,93.20
2022-08-12T09:18:41.119Z,92.30
2022-08-12T09:21:09.656Z,92.10
2022-08-12T09:23:59.229Z,91.70
2022-08-12T09:26:28.733Z,90.30
2022-08-12T09:28:58.023Z,90.90
2022-08-12T09:32:07.314Z,90.80
2022-08-12T09:34:28.172Z,90.60
2022-08-12T09:37:02.779Z,90.70
2022-08-12T09:40:01.397Z,90.30
2022-08-12T09:43:11.753Z,90.60
2022-08-12T09:46:20.283Z,90.60
2022-08-12T09:48:24.185Z,90.50
2022-08-12T09:50:55.127Z,88.20
2022-08-12T09:53:36.229Z,87.40
2022-08-12T09:57:00.128Z,85.70
2022-08-12T09:59:01.666Z,86.40
2022-08-12T10:01:35.337Z,85.40
2022-08-12T10:04:19.547Z,83.90
2022-08-12T10:06:54.966Z,83.80
2022-08-12T10:09:28.613Z,84.00
2022-08-12T10:12:33.025Z,81.50
2022-08-12T10:16:00.891Z,80.60
2022-08-12T10:18:06.231Z,79.40
2022-08-12T10:20:34.647Z,78.80
2022-08-12T10:23:01.914Z,78.00
2022-08-12T10:26:10.026Z,79.50
2022-08-12T10:29:03.464Z,76.00
2022-08-12T10:32:21.574Z,76.20
2022-08-12T10:34:40.497Z,76.50
2022-08-12T10:38:36.042Z,75.50
2022-08-12T10:40:15.655Z,75.10
2022-08-12T10:43:05.914Z,73.90
2022-08-12T10:45:33.052Z,73.30
2022-08-12T10:48:19.506Z,71.80
2022-08-12T10:50:58.339Z,73.20
2022-08-12T10:53:43.998Z,72.60
2022-08-12T10:56:18.410Z,71.50
2022-08-12T10:58:47.058Z,70.90
2022-08-12T11:01:49.332Z,70.20
2022-08-12T11:04:28.595Z,70.60
2022-08-12T11:07:09.836Z,70.90
2022-08-12T11:10:00.625Z,70.60
2022-08-12T11:12:56.675Z,69.00
2022-08-12T11:15:33.568Z,68.00
2022-08-12T11:18:18.468Z,67.20
2022-08-12T11:20:48.042Z,66.10
2022-08-12T11:23:25.166Z,65.70
2022-08-12T11:26:06.271Z,65.00
2022-08-12T11:28:36.966Z,64.50
2022-08-12T11:31:09.897Z,64.90
2022-08-12T11:34:06.868Z,65.00
2022-08-12T11:36:29.524Z,63.90
2022-08-12T11:38:58.109Z,64.10
2022-08-12T11:41:31.216Z,62.20
2022-08-12T11:44:30.739Z,62.50
2022-08-12T11:46:51.344Z,61.50
2022-08-12T11:49:31.693Z,59.30
2022-08-12T11:52:04.174Z,59.30
2022-08-12T11:54:51.170Z,59.10
2022-08-12T11:58:34.067Z,58.50
2022-08-12T12:02:53.953Z,58.60
2022-08-12T12:08:41.400Z,56.70
2022-08-12T12:10:42.694Z,56.80
2022-08-12T12:13:11.694Z,57.90
2022-08-12T12:15:50.557Z,56.80
2022-08-12T12:18:31.314Z,57.00
2022-08-12T12:21:05.038Z,57.60
2022-08-12T12:23:36.589Z,57.00
2022-08-12T12:26:08.290Z,55.60
2022-08-12T12:28:38.230Z,55.20
2022-08-12T12:31:14.910Z,56.10
2022-08-12T12:33:57.933Z,55.70
2022-08-12T12:36:30.241Z,57.10
2022-08-12T12:38:59.899Z,56.50
2022-08-12T12:42:54.563Z,55.10
2022-08-12T12:44:25.856Z,56.10
2022-08-12T12:47:29.385Z,55.50
2022-08-12T12:49:53.791Z,55.80
2022-08-12T12:52:21.357Z,55.00
2022-08-12T12:54:57.545Z,53.90
2022-08-12T12:57:36.406Z,55.40
2022-08-12T13:00:17.823Z,53.90
2022-08-12T13:02:55.584Z,54.50
2022-08-12T13:05:28.164Z,53.60
2022-08-12T13:08:00.971Z,54.50
2022-08-12T13:10:36.800Z,54.90
2022-08-12T13:14:07.632Z,55.70
2022-08-12T13:15:52.419Z,56.50
2022-08-12T13:18:19.852Z,55.10
2022-08-12T13:20:59.218Z,53.60
2022-08-12T13:23:36.833Z,53.30
2022-08-12T13:26:05.351Z,54.70
2022-08-12T13:28:32.558Z,53.40
2022-08-12T13:31:00.394Z,52.70
2022-08-12T13:36:18.045Z,52.00
2022-08-12T13:38:54.214Z,53.60
2022-08-12T13:41:33.931Z,52.90
2022-08-12T13:44:10.725Z,52.20
2022-08-12T13:46:40.824Z,51.70
2022-08-12T13:49:17.423Z,49.80
2022-08-12T13:52:01.097Z,49.80
2022-08-12T13:54:28.211Z,51.40
2022-08-12T13:56:57.007Z,51.90
2022-08-12T13:59:26.582Z,51.70
2022-08-12T14:01:56.857Z,52.10
2022-08-12T14:04:24.108Z,52.50
2022-08-12T14:06:54.079Z,53.80
2022-08-12T14:09:21.157Z,54.90
2022-08-12T14:11:58.436Z,53.60
2022-08-12T14:14:31.605Z,52.40
2022-08-12T14:17:10.290Z,53.20
2022-08-12T14:20:00.594Z,52.50
2022-08-12T14:22:28.256Z,53.00
2022-08-12T14:24:58.340Z,53.80
2022-08-12T14:28:03.176Z,52.90
2022-08-12T14:30:28.995Z,51.90
2022-08-12T14:32:57.708Z,54.10
2022-08-12T14:35:24.771Z,55.20
2022-08-12T14:37:55.936Z,53.00
2022-08-12T14:40:29.156Z,52.90
2022-08-12T14:42:58.539Z,54.90
2022-08-12T14:45:45.171Z,51.70
2022-08-12T14:48:18.545Z,51.70
2022-08-12T14:51:02.718Z,53.30
2022-08-12T14:55:36.237Z,52.50
2022-08-12T14:59:56.843Z,54.40
2022-08-12T15:02:21.086Z,53.00
2022-08-12T15:04:55.906Z,54.20
2022-08-12T15:07:34.052Z,53.20
2022-08-12T15:10:12.728Z,51.40
2022-08-12T15:12:40.405Z,52.10
2022-08-12T15:15:10.312Z,52.10
2022-08-12T15:17:38.780Z,54.50
2022-08-12T15:20:28.647Z,55.30
2022-08-12T15:22:56.649Z,55.20
2022-08-12T15:25:29.085Z,53.40
2022-08-12T15:28:20.783Z,52.30
2022-08-12T15:30:53.357Z,53.70
2022-08-12T15:33:25.307Z,53.70
2022-08-12T15:36:13.961Z,54.20
2022-08-12T15:38:41.988Z,54.90
2022-08-12T15:41:14.661Z,54.20
2022-08-12T15:44:15.761Z,53.30
2022-08-12T15:46:32.389Z,53.30
2022-08-12T15:48:59.881Z,51.00
2022-08-12T15:51:58.269Z,52.40
2022-08-12T15:54:33.803Z,51.10
2022-08-12T15:57:08.192Z,52.40
2022-08-12T16:00:00.541Z,51.40
2022-08-12T16:02:29.847Z,52.20
2022-08-12T16:04:58.422Z,51.00
2022-08-12T16:07:32.665Z,51.60
2022-08-12T16:10:08.433Z,53.80
2022-08-12T16:12:55.097Z,55.50
2022-08-12T16:15:26.805Z,52.60
2022-08-12T16:18:09.029Z,52.30
2022-08-12T16:20:46.880Z,55.70
2022-08-12T16:23:26.837Z,54.20
2022-08-12T16:26:15.122Z,56.80
2022-08-12T16:28:48.074Z,56.10
2022-08-12T16:31:23.419Z,53.40
2022-08-12T16:33:58.903Z,54.50
2022-08-12T16:36:29.668Z,54.90
2022-08-12T16:38:57.289Z,57.40
2022-08-12T16:41:25.667Z,58.10
2022-08-12T16:43:55.580Z,56.40
2022-08-12T16:46:32.265Z,57.30
2022-08-12T16:49:04.281Z,56.70
2022-08-12T16:51:45.811Z,57.00
2022-08-12T16:54:17.106Z,56.10
2022-08-12T16:56:51.182Z,55.90
2022-08-12T16:59:23.128Z,58.10
2022-08-12T17:01:51.817Z,56.80
2022-08-12T17:04:19.669Z,57.00
2022-08-12T17:06:52.716Z,58.00
2022-08-12T17:09:20.148Z,57.00
2022-08-12T17:11:49.322Z,58.10
2022-08-12T17:14:23.519Z,57.00
2022-08-12T17:16:55.072Z,57.10
2022-08-12T17:20:16.834Z,57.30
2022-08-12T17:22:16.374Z,56.80
2022-08-12T17:24:54.652Z,56.50
2022-08-12T17:27:25.583Z,56.20
2022-08-12T17:30:02.770Z,56.20
2022-08-12T17:32:35.031Z,56.90
2022-08-12T17:35:21.476Z,56.30
2022-08-12T17:37:48.694Z,55.70
2022-08-12T17:40:34.431Z,55.90
2022-08-12T17:43:55.587Z,55.90
2022-08-12T17:45:59.934Z,56.10
2022-08-12T17:48:35.019Z,55.80
2022-08-12T17:51:15.630Z,56.30
2022-08-12T17:54:11.587Z,57.30
2022-08-12T17:56:37.286Z,56.70
2022-08-12T17:59:07.575Z,56.40
2022-08-12T18:01:36.645Z,56.80
2022-08-12T18:04:21.311Z,57.60
2022-08-12T18:06:50.715Z,58.80
2022-08-12T18:09:18.785Z,58.80
2022-08-12T18:12:07.836Z,58.50
2022-08-12T18:14:37.321Z,59.50
2022-08-12T18:17:08.771Z,60.40
2022-08-12T18:20:04.952Z,60.50
2022-08-12T18:22:30.464Z,60.50
2022-08-12T18:25:03.955Z,60.90
2022-08-12T18:27:44.136Z,61.40
2022-08-12T18:30:20.698Z,61.00
2022-08-12T18:33:05.251Z,61.00
2022-08-12T18:35:47.639Z,60.90
2022-08-12T18:38:24.605Z,61.00
2022-08-12T18:41:20.887Z,61.00
2022-08-12T18:44:11.479Z,61.00
2022-08-12T18:46:56.063Z,60.30
2022-08-12T18:49:38.078Z,60.00
2022-08-12T18:52:11.252Z,60.50
2022-08-12T18:54:48.891Z,61.10
2022-08-12T18:58:06.943Z,61.30
2022-08-12T19:00:21.435Z,61.50
2022-08-12T19:02:54.490Z,62.00
2022-08-12T19:05:53.380Z,61.70
2022-08-12T19:08:14.068Z,61.80
2022-08-12T19:10:50.167Z,62.10
2022-08-12T19:13:43.573Z,62.00
2022-08-12T19:16:11.545Z,62.10
2022-08-12T19:18:44.772Z,62.20
2022-08-12T19:21:16.624Z,62.50
2022-08-12T19:24:07.846Z,62.90
2022-08-12T19:26:36.085Z,62.90
2022-08-12T19:29:07.550Z,62.80
2022-08-12T19:31:44.572Z,62.10
2022-08-12T19:35:32.931Z,61.70
2022-08-12T19:38:02.551Z,61.80
2022-08-12T19:40:20.458Z,61.40
2022-08-12T19:43:01.935Z,61.70
2022-08-12T19:45:43.472Z,61.00
2022-08-12T19:48:19.661Z,61.40
2022-08-12T19:50:53.410Z,61.90
2022-08-12T19:53:23.474Z,61.90
2022-08-12T19:55:57.445Z,62.00
2022-08-12T19:58:26.820Z,62.10
2022-08-12T20:00:56.169Z,63.20
2022-08-12T20:03:39.082Z,62.80
2022-08-12T20:06:13.774Z,63.10
2022-08-12T20:08:53.844Z,63.10
2022-08-12T20:12:12.225Z,63.10
2022-08-12T20:14:19.470Z,63.10
2022-08-12T20:17:01.628Z,63.10
2022-08-12T20:20:01.486Z,62.50
2022-08-12T20:22:29.974Z,63.10
2022-08-12T20:25:09.036Z,62.80
2022-08-12T20:28:04.193Z,62.80
2022-08-12T20:30:37.462Z,62.40
2022-08-12T20:33:18.942Z,61.80
2022-08-12T20:36:06.989Z,62.90
2022-08-12T20:38:39.774Z,62.70
2022-08-12T20:41:16.672Z,62.60
2022-08-12T20:43:55.028Z,63.10
2022-08-12T20:46:29.578Z,63.50
2022-08-12T20:48:57.466Z,63.30
2022-08-12T20:51:50.911Z,63.20
2022-08-12T20:54:19.594Z,63.20
2022-08-12T20:56:47.926Z,63.50
2022-08-12T20:59:20.219Z,64.40
2022-08-12T21:01:49.137Z,63.90
2022-08-12T21:04:36.691Z,64.10
2022-08-12T21:07:09.802Z,64.40
2022-08-12T21:09:42.712Z,64.30
2022-08-12T21:12:31.446Z,64.50
2022-08-12T21:15:22.997Z,64.60
2022-08-12T21:18:09.782Z,65.20
2022-08-12T21:20:54.577Z,65.90
2022-08-12T21:23:23.278Z,66.80
2022-08-12T21:26:01.197Z,67.10
2022-08-12T21:28:31.590Z,66.80
2022-08-12T21:32:34.395Z,67.10
2022-08-12T21:34:07.831Z,67.40
2022-08-12T21:36:40.403Z,67.60
2022-08-12T21:39:21.282Z,67.90
2022-08-12T21:42:00.335Z,67.90
2022-08-12T21:45:44.056Z,67.70
2022-08-12T21:47:22.328Z,67.90
2022-08-12T21:50:06.353Z,68.10
2022-08-12T21:52:37.333Z,68.50
2022-08-12T21:55:17.732Z,69.00
2022-08-12T21:57:53.568Z,69.20
2022-08-12T22:00:32.552Z,69.50
2022-08-12T22:04:03.623Z,69.90
2022-08-12T22:06:26.491Z,70.20
2022-08-12T22:09:15.405Z,70.00
2022-08-12T22:11:56.706Z,70.90
2022-08-12T22:14:30.194Z,71.30
2022-08-12T22:17:00.650Z,71.70
2022-08-12T22:19:28.087Z,71.80
2022-08-12T22:21:58.408Z,72.00
2022-08-12T22:24:30.093Z,72.60
2022-08-12T22:27:07.959Z,72.90
2022-08-12T22:30:04.683Z,73.50
2022-08-12T22:32:33.719Z,74.20
2022-08-12T22:35:22.235Z,74.30
2022-08-12T22:37:56.251Z,74.40
2022-08-12T22:40:23.799Z,75.00
2022-08-12T22:43:15.824Z,75.20
2022-08-12T22:46:01.981Z,75.40
2022-08-12T22:48:30.667Z,75.70
2022-08-12T22:50:59.087Z,75.90
2022-08-12T22:53:35.847Z,76.10
2022-08-12T22:56:10.257Z,76.70
2022-08-12T22:58:41.741Z,77.00
2022-08-12T23:01:11.320Z,77.40
2022-08-12T23:03:48.557Z,77.70
2022-08-12T23:06:21.344Z,77.40
2022-08-12T23:08:48.759Z,77.60
2022-08-12T23:11:17.236Z,78.60
2022-08-12T23:14:01.818Z,78.20
2022-08-12T23:16:34.099Z,78.00
2022-08-12T23:19:10.483Z,77.50
2022-08-12T23:22:06.043Z,77.60
2022-08-12T23:24:53.808Z,78.20
2022-08-12T23:27:51.812Z,78.90
2022-08-12T23:30:32.347Z,79.10
2022-08-12T23:33:19.995Z,78.00
2022-08-12T23:36:02.349Z,78.70
2022-08-12T23:38:33.093Z,78.90
2022-08-12T23:41:06.084Z,79.20
2022-08-12T23:43:39.279Z,79.30
2022-08-12T23:46:10.530Z,78.90
2022-08-12T23:48:38.235Z,79.60
2022-08-12T23:51:22.215Z,80.50
2022-08-12T23:54:02.952Z,80.70
2022-08-12T23:56:34.950Z,81.40
2022-08-12T23:59:08.188Z,81.80
